Terminal Aerodrome Forecast
Issued by NWS

Home | Current Version | Previous Version | Text Only | Print | Product List | Glossary On
Versions: 1 2 3 4 5 6 7 8 9 10 11 12 13 14 15 16 17 18 19 20 21 22 23 24 25 26 27 28
000
FTAK31 PANC 032344
TAFAGK
TAF
PAGK 032344Z 0400/0424 15020G28KT P6SM VCSH SCT060
      TEMPO 0400/0404 15025G35KT
     FM040600 16011KT P6SM VCSH BKN050
     FM041200 VRB03KT P6SM -RA SCT020 OVC060
     FM042100 16012G20KT P6SM VCSH BKN060=

USA.gov is the U.S. government's official web portal to all federal, state and local government web resources and services.